APRS [IN63SD], 0 Stunde(n), DL3EL [02:20:41, 0s].
ED1YBD 43.09.56N 006.29.74WIN63SD 3.384km 296°WNW00:20:29ZWIDE3-3 ESAS3-3 WX3IN1+ DIGI/IGATE(3ED1YBD-3)
EA1CZ 43.05.15N 006.33.28WIN63RC 10.265km 230°SW00:03:17ZWIDE3-3 ESAS3-3(3EA1CZ-2)
LETN 43.20.05N 006.22.69WIN63TI 21.921km 17°NNE00:00:22ZAerodromo de La Curiscada (Tineo): LEAS 132330Z 31005KT 250V350 4500 -RA VCTS SCT020CB SCT068 18/18 Q1021 TEMPO SHRA=
LEBO 43.01.62N 006.53.05WIN63NA 37.021km 249°WSW00:00:22ZHelipuerto de Ibias: LEAS 132330Z 31005KT 250V350 4500 -RA VCTS SCT020CB SCT068 18/18 Q1021 TEMPO SHRA=

aprs.pl 5.0.011w DL3EL © 2006-2021 [460135]